sensor_id;sensor_type;location;lat;lon;timestamp;temperature;humidity
1994;DHT22;998;49.906;10.908;2022-08-19T00:01:27;23.90;99.90
1994;DHT22;998;49.906;10.908;2022-08-19T00:03:54;24.00;99.90
1994;DHT22;998;49.906;10.908;2022-08-19T00:06:21;23.90;99.90
1994;DHT22;998;49.906;10.908;2022-08-19T00:08:48;23.80;99.90
1994;DHT22;998;49.906;10.908;2022-08-19T00:11:16;23.80;99.90
1994;DHT22;998;49.906;10.908;2022-08-19T00:13:45;23.80;99.90
1994;DHT22;998;49.906;10.908;2022-08-19T00:16:16;23.90;99.90
1994;DHT22;998;49.906;10.908;2022-08-19T00:18:43;23.90;99.90
1994;DHT22;998;49.906;10.908;2022-08-19T00:21:10;23.60;99.90
1994;DHT22;998;49.906;10.908;2022-08-19T00:23:37;23.50;99.90
1994;DHT22;998;49.906;10.908;2022-08-19T00:26:05;23.60;99.90
1994;DHT22;998;49.906;10.908;2022-08-19T00:28:32;23.30;99.90
1994;DHT22;998;49.906;10.908;2022-08-19T00:31:03;23.30;99.90
1994;DHT22;998;49.906;10.908;2022-08-19T00:33:30;23.30;99.90
1994;DHT22;998;49.906;10.908;2022-08-19T00:35:58;23.30;99.90
1994;DHT22;998;49.906;10.908;2022-08-19T00:38:25;23.20;99.90
1994;DHT22;998;49.906;10.908;2022-08-19T00:40:52;23.20;99.90
1994;DHT22;998;49.906;10.908;2022-08-19T00:43:21;23.20;99.90
1994;DHT22;998;49.906;10.908;2022-08-19T00:45:49;23.40;99.90
1994;DHT22;998;49.906;10.908;2022-08-19T00:48:19;23.50;99.90
1994;DHT22;998;49.906;10.908;2022-08-19T00:50:48;23.60;99.90
1994;DHT22;998;49.906;10.908;2022-08-19T00:53:17;23.60;99.90
1994;DHT22;998;49.906;10.908;2022-08-19T00:55:46;23.60;99.90
1994;DHT22;998;49.906;10.908;2022-08-19T00:58:17;23.40;99.90
1994;DHT22;998;49.906;10.908;2022-08-19T01:00:45;23.40;99.90
1994;DHT22;998;49.906;10.908;2022-08-19T01:03:15;23.50;99.90
1994;DHT22;998;49.906;10.908;2022-08-19T01:05:44;23.40;99.90
1994;DHT22;998;49.906;10.908;2022-08-19T01:08:12;23.30;99.90
1994;DHT22;998;49.906;10.908;2022-08-19T01:10:42;23.30;99.90
1994;DHT22;998;49.906;10.908;2022-08-19T01:13:10;23.20;99.90
1994;DHT22;998;49.906;10.908;2022-08-19T01:15:42;23.30;99.90
1994;DHT22;998;49.906;10.908;2022-08-19T01:18:12;23.30;99.90
1994;DHT22;998;49.906;10.908;2022-08-19T01:20:41;23.30;99.90
1994;DHT22;998;49.906;10.908;2022-08-19T01:23:10;23.40;99.90
1994;DHT22;998;49.906;10.908;2022-08-19T01:25:42;23.40;99.90
1994;DHT22;998;49.906;10.908;2022-08-19T01:28:15;23.30;99.90
1994;DHT22;998;49.906;10.908;2022-08-19T01:30:44;23.20;99.90
1994;DHT22;998;49.906;10.908;2022-08-19T01:33:11;23.30;99.90
1994;DHT22;998;49.906;10.908;2022-08-19T01:35:38;23.30;99.90
1994;DHT22;998;49.906;10.908;2022-08-19T01:38:08;23.30;99.90
1994;DHT22;998;49.906;10.908;2022-08-19T01:40:38;23.20;99.90
1994;DHT22;998;49.906;10.908;2022-08-19T01:43:07;23.10;99.90
1994;DHT22;998;49.906;10.908;2022-08-19T01:45:35;23.10;99.90
1994;DHT22;998;49.906;10.908;2022-08-19T01:48:03;23.10;99.90
1994;DHT22;998;49.906;10.908;2022-08-19T01:50:30;23.00;99.90
1994;DHT22;998;49.906;10.908;2022-08-19T01:52:58;23.10;99.90
1994;DHT22;998;49.906;10.908;2022-08-19T01:55:26;23.10;99.90
1994;DHT22;998;49.906;10.908;2022-08-19T01:57:59;23.10;99.90
1994;DHT22;998;49.906;10.908;2022-08-19T02:00:28;23.10;99.90
1994;DHT22;998;49.906;10.908;2022-08-19T02:02:56;23.00;99.90
1994;DHT22;998;49.906;10.908;2022-08-19T02:05:23;23.00;99.90
1994;DHT22;998;49.906;10.908;2022-08-19T02:07:50;23.20;99.90
1994;DHT22;998;49.906;10.908;2022-08-19T02:10:19;23.30;99.90
1994;DHT22;998;49.906;10.908;2022-08-19T02:12:47;23.40;99.90
1994;DHT22;998;49.906;10.908;2022-08-19T02:15:16;23.30;99.90
1994;DHT22;998;49.906;10.908;2022-08-19T02:17:44;23.00;99.90
1994;DHT22;998;49.906;10.908;2022-08-19T02:20:11;23.10;99.90
1994;DHT22;998;49.906;10.908;2022-08-19T02:22:39;22.90;99.90
1994;DHT22;998;49.906;10.908;2022-08-19T02:25:08;22.80;99.90
1994;DHT22;998;49.906;10.908;2022-08-19T02:27:35;23.00;99.90
1994;DHT22;998;49.906;10.908;2022-08-19T02:30:04;22.90;99.90
1994;DHT22;998;49.906;10.908;2022-08-19T02:32:32;23.10;99.90
1994;DHT22;998;49.906;10.908;2022-08-19T02:34:59;23.20;99.90
1994;DHT22;998;49.906;10.908;2022-08-19T02:37:26;23.30;99.90
1994;DHT22;998;49.906;10.908;2022-08-19T02:40:21;23.30;99.90
1994;DHT22;998;49.906;10.908;2022-08-19T02:42:49;23.30;99.90
1994;DHT22;998;49.906;10.908;2022-08-19T02:45:16;23.20;99.90
1994;DHT22;998;49.906;10.908;2022-08-19T02:47:45;23.30;99.90
1994;DHT22;998;49.906;10.908;2022-08-19T02:50:12;23.30;99.90
1994;DHT22;998;49.906;10.908;2022-08-19T02:52:40;23.30;99.90
1994;DHT22;998;49.906;10.908;2022-08-19T02:55:07;23.20;99.90
1994;DHT22;998;49.906;10.908;2022-08-19T02:57:34;23.20;99.90
1994;DHT22;998;49.906;10.908;2022-08-19T03:00:04;23.10;99.90
1994;DHT22;998;49.906;10.908;2022-08-19T03:02:33;23.10;99.90
1994;DHT22;998;49.906;10.908;2022-08-19T03:05:02;23.00;99.90
1994;DHT22;998;49.906;10.908;2022-08-19T03:07:29;22.90;99.90
1994;DHT22;998;49.906;10.908;2022-08-19T03:09:56;22.70;99.90
1994;DHT22;998;49.906;10.908;2022-08-19T03:12:23;22.80;99.90
1994;DHT22;998;49.906;10.908;2022-08-19T03:14:50;22.80;99.90
1994;DHT22;998;49.906;10.908;2022-08-19T03:17:18;22.80;99.90
1994;DHT22;998;49.906;10.908;2022-08-19T03:19:45;22.80;99.90
1994;DHT22;998;49.906;10.908;2022-08-19T03:22:13;22.80;99.90
1994;DHT22;998;49.906;10.908;2022-08-19T03:24:40;22.70;99.90
1994;DHT22;998;49.906;10.908;2022-08-19T03:27:06;22.80;99.90
1994;DHT22;998;49.906;10.908;2022-08-19T03:29:37;22.80;99.90
1994;DHT22;998;49.906;10.908;2022-08-19T03:32:05;22.80;99.90
1994;DHT22;998;49.906;10.908;2022-08-19T03:34:34;22.80;99.90
1994;DHT22;998;49.906;10.908;2022-08-19T03:37:04;22.70;99.90
1994;DHT22;998;49.906;10.908;2022-08-19T03:39:33;22.80;99.90
1994;DHT22;998;49.906;10.908;2022-08-19T03:41:59;22.80;99.90
1994;DHT22;998;49.906;10.908;2022-08-19T03:44:28;22.90;99.90
1994;DHT22;998;49.906;10.908;2022-08-19T03:46:58;22.90;99.90
1994;DHT22;998;49.906;10.908;2022-08-19T03:49:28;22.90;99.90
1994;DHT22;998;49.906;10.908;2022-08-19T03:51:56;22.90;99.90
1994;DHT22;998;49.906;10.908;2022-08-19T03:54:26;23.00;99.90
1994;DHT22;998;49.906;10.908;2022-08-19T03:56:56;23.00;99.90
1994;DHT22;998;49.906;10.908;2022-08-19T03:59:25;22.90;99.90
1994;DHT22;998;49.906;10.908;2022-08-19T04:01:53;22.90;99.90
1994;DHT22;998;49.906;10.908;2022-08-19T04:04:20;22.90;99.90
1994;DHT22;998;49.906;10.908;2022-08-19T04:06:48;22.80;99.90
1994;DHT22;998;49.906;10.908;2022-08-19T04:09:16;22.90;99.90
1994;DHT22;998;49.906;10.908;2022-08-19T04:11:45;22.90;99.90
1994;DHT22;998;49.906;10.908;2022-08-19T04:14:17;22.90;99.90
1994;DHT22;998;49.906;10.908;2022-08-19T04:16:45;23.00;99.90
1994;DHT22;998;49.906;10.908;2022-08-19T04:19:13;23.00;99.90
1994;DHT22;998;49.906;10.908;2022-08-19T04:21:43;23.10;99.90
1994;DHT22;998;49.906;10.908;2022-08-19T04:24:11;23.10;99.90
1994;DHT22;998;49.906;10.908;2022-08-19T04:26:38;23.10;99.90
1994;DHT22;998;49.906;10.908;2022-08-19T04:29:07;23.10;99.90
1994;DHT22;998;49.906;10.908;2022-08-19T04:31:35;23.10;99.90
1994;DHT22;998;49.906;10.908;2022-08-19T04:34:04;23.10;99.90
1994;DHT22;998;49.906;10.908;2022-08-19T04:36:33;23.10;99.90
1994;DHT22;998;49.906;10.908;2022-08-19T04:39:05;23.10;99.90
1994;DHT22;998;49.906;10.908;2022-08-19T04:41:33;23.10;99.90
1994;DHT22;998;49.906;10.908;2022-08-19T04:44:17;23.00;99.90
1994;DHT22;998;49.906;10.908;2022-08-19T04:46:46;22.90;99.90
1994;DHT22;998;49.906;10.908;2022-08-19T04:49:14;23.00;99.90
1994;DHT22;998;49.906;10.908;2022-08-19T04:51:44;22.90;99.90
1994;DHT22;998;49.906;10.908;2022-08-19T04:54:11;22.90;99.90
1994;DHT22;998;49.906;10.908;2022-08-19T04:56:39;22.90;99.90
1994;DHT22;998;49.906;10.908;2022-08-19T04:59:07;22.80;99.90
1994;DHT22;998;49.906;10.908;2022-08-19T05:01:34;22.70;99.90
1994;DHT22;998;49.906;10.908;2022-08-19T05:04:05;22.60;99.90
1994;DHT22;998;49.906;10.908;2022-08-19T05:06:33;22.40;99.90
1994;DHT22;998;49.906;10.908;2022-08-19T05:09:01;22.40;99.90
1994;DHT22;998;49.906;10.908;2022-08-19T05:11:31;22.60;99.90
1994;DHT22;998;49.906;10.908;2022-08-19T05:13:58;22.60;99.90
1994;DHT22;998;49.906;10.908;2022-08-19T05:16:25;22.60;99.90
1994;DHT22;998;49.906;10.908;2022-08-19T05:18:53;22.60;99.90
1994;DHT22;998;49.906;10.908;2022-08-19T05:21:45;22.70;99.90
1994;DHT22;998;49.906;10.908;2022-08-19T05:24:30;22.80;99.90
1994;DHT22;998;49.906;10.908;2022-08-19T05:26:57;22.80;99.90
1994;DHT22;998;49.906;10.908;2022-08-19T05:29:26;22.80;99.90
1994;DHT22;998;49.906;10.908;2022-08-19T05:31:54;22.80;99.90
1994;DHT22;998;49.906;10.908;2022-08-19T05:34:23;22.80;99.90
1994;DHT22;998;49.906;10.908;2022-08-19T05:36:53;22.70;99.90
1994;DHT22;998;49.906;10.908;2022-08-19T05:39:24;22.70;99.90
1994;DHT22;998;49.906;10.908;2022-08-19T05:41:53;22.80;99.90
1994;DHT22;998;49.906;10.908;2022-08-19T05:44:23;22.80;99.90
1994;DHT22;998;49.906;10.908;2022-08-19T05:46:51;22.80;99.90
1994;DHT22;998;49.906;10.908;2022-08-19T05:49:20;22.70;99.90
1994;DHT22;998;49.906;10.908;2022-08-19T05:51:47;22.60;99.90
1994;DHT22;998;49.906;10.908;2022-08-19T05:54:16;22.50;99.90
1994;DHT22;998;49.906;10.908;2022-08-19T05:56:43;22.50;99.90
1994;DHT22;998;49.906;10.908;2022-08-19T05:59:14;22.50;99.90
1994;DHT22;998;49.906;10.908;2022-08-19T06:01:43;22.40;99.90
1994;DHT22;998;49.906;10.908;2022-08-19T06:04:11;22.30;99.90
1994;DHT22;998;49.906;10.908;2022-08-19T06:06:40;22.10;99.90
1994;DHT22;998;49.906;10.908;2022-08-19T06:09:07;21.90;99.90
1994;DHT22;998;49.906;10.908;2022-08-19T06:11:38;21.80;99.90
1994;DHT22;998;49.906;10.908;2022-08-19T06:14:09;21.80;99.90
1994;DHT22;998;49.906;10.908;2022-08-19T06:16:38;22.00;99.90
1994;DHT22;998;49.906;10.908;2022-08-19T06:19:08;22.20;99.90
1994;DHT22;998;49.906;10.908;2022-08-19T06:21:36;22.40;99.90
1994;DHT22;998;49.906;10.908;2022-08-19T06:24:04;22.50;99.90
1994;DHT22;998;49.906;10.908;2022-08-19T06:26:32;22.60;99.90
1994;DHT22;998;49.906;10.908;2022-08-19T06:29:01;22.60;99.90
1994;DHT22;998;49.906;10.908;2022-08-19T06:31:29;22.70;99.90
1994;DHT22;998;49.906;10.908;2022-08-19T06:33:59;22.60;99.90
1994;DHT22;998;49.906;10.908;2022-08-19T06:36:29;22.70;99.90
1994;DHT22;998;49.906;10.908;2022-08-19T06:38:57;22.70;99.90
1994;DHT22;998;49.906;10.908;2022-08-19T06:41:24;22.70;99.90
1994;DHT22;998;49.906;10.908;2022-08-19T06:43:52;22.70;99.90
1994;DHT22;998;49.906;10.908;2022-08-19T06:46:21;22.80;99.90
1994;DHT22;998;49.906;10.908;2022-08-19T06:48:49;22.70;99.90
1994;DHT22;998;49.906;10.908;2022-08-19T06:51:19;22.80;99.90
1994;DHT22;998;49.906;10.908;2022-08-19T06:53:46;22.70;99.90
1994;DHT22;998;49.906;10.908;2022-08-19T06:56:14;22.70;99.90
1994;DHT22;998;49.906;10.908;2022-08-19T06:58:42;22.70;99.90
1994;DHT22;998;49.906;10.908;2022-08-19T07:01:09;22.70;99.90
1994;DHT22;998;49.906;10.908;2022-08-19T07:03:38;22.80;99.90
1994;DHT22;998;49.906;10.908;2022-08-19T07:06:06;22.80;99.90
1994;DHT22;998;49.906;10.908;2022-08-19T07:08:35;22.70;99.90
1994;DHT22;998;49.906;10.908;2022-08-19T07:11:05;22.70;99.90
1994;DHT22;998;49.906;10.908;2022-08-19T07:13:33;22.70;99.90
1994;DHT22;998;49.906;10.908;2022-08-19T07:16:03;22.70;99.90
1994;DHT22;998;49.906;10.908;2022-08-19T07:18:31;22.70;99.90
1994;DHT22;998;49.906;10.908;2022-08-19T07:21:04;22.70;99.90
1994;DHT22;998;49.906;10.908;2022-08-19T07:23:32;22.70;99.90
1994;DHT22;998;49.906;10.908;2022-08-19T07:26:05;22.70;99.90
1994;DHT22;998;49.906;10.908;2022-08-19T07:28:32;22.80;99.90
1994;DHT22;998;49.906;10.908;2022-08-19T07:31:00;22.80;99.90
1994;DHT22;998;49.906;10.908;2022-08-19T07:33:29;22.70;99.90
1994;DHT22;998;49.906;10.908;2022-08-19T07:35:58;22.80;99.90
1994;DHT22;998;49.906;10.908;2022-08-19T07:38:26;22.70;99.90
1994;DHT22;998;49.906;10.908;2022-08-19T07:40:53;22.70;99.90
1994;DHT22;998;49.906;10.908;2022-08-19T07:43:20;22.70;99.90
1994;DHT22;998;49.906;10.908;2022-08-19T07:45:50;22.70;99.90
1994;DHT22;998;49.906;10.908;2022-08-19T07:48:17;22.50;99.90
1994;DHT22;998;49.906;10.908;2022-08-19T07:50:44;22.50;99.90
1994;DHT22;998;49.906;10.908;2022-08-19T07:53:11;22.50;99.90
1994;DHT22;998;49.906;10.908;2022-08-19T07:55:40;22.50;99.90
1994;DHT22;998;49.906;10.908;2022-08-19T07:58:07;22.50;99.90
1994;DHT22;998;49.906;10.908;2022-08-19T08:00:35;22.40;99.90
1994;DHT22;998;49.906;10.908;2022-08-19T08:03:02;22.40;99.90
1994;DHT22;998;49.906;10.908;2022-08-19T08:05:28;22.40;99.90
1994;DHT22;998;49.906;10.908;2022-08-19T08:08:13;22.30;99.90
1994;DHT22;998;49.906;10.908;2022-08-19T08:11:04;22.30;99.90
1994;DHT22;998;49.906;10.908;2022-08-19T08:13:32;22.30;99.90
1994;DHT22;998;49.906;10.908;2022-08-19T08:16:00;22.40;99.90
1994;DHT22;998;49.906;10.908;2022-08-19T08:18:27;22.50;99.90
1994;DHT22;998;49.906;10.908;2022-08-19T08:20:55;22.50;99.90
1994;DHT22;998;49.906;10.908;2022-08-19T08:23:22;22.50;99.90
1994;DHT22;998;49.906;10.908;2022-08-19T08:25:51;22.50;99.90
1994;DHT22;998;49.906;10.908;2022-08-19T08:28:22;22.50;99.90
1994;DHT22;998;49.906;10.908;2022-08-19T08:30:49;22.70;99.90
1994;DHT22;998;49.906;10.908;2022-08-19T08:33:18;22.80;99.90
1994;DHT22;998;49.906;10.908;2022-08-19T08:35:45;22.70;99.90
1994;DHT22;998;49.906;10.908;2022-08-19T08:38:13;22.70;99.90
1994;DHT22;998;49.906;10.908;2022-08-19T08:40:45;22.80;99.90
1994;DHT22;998;49.906;10.908;2022-08-19T08:43:23;22.80;99.90
1994;DHT22;998;49.906;10.908;2022-08-19T08:45:56;23.00;99.90
1994;DHT22;998;49.906;10.908;2022-08-19T08:48:32;22.80;99.90
1994;DHT22;998;49.906;10.908;2022-08-19T08:51:03;22.80;99.90
1994;DHT22;998;49.906;10.908;2022-08-19T08:53:32;22.90;99.90
1994;DHT22;998;49.906;10.908;2022-08-19T08:56:06;23.00;99.90
1994;DHT22;998;49.906;10.908;2022-08-19T08:58:46;23.10;99.90
1994;DHT22;998;49.906;10.908;2022-08-19T09:01:14;22.90;99.90
1994;DHT22;998;49.906;10.908;2022-08-19T09:03:43;23.00;99.90
1994;DHT22;998;49.906;10.908;2022-08-19T09:06:14;23.10;99.90
1994;DHT22;998;49.906;10.908;2022-08-19T09:08:49;23.20;99.90
1994;DHT22;998;49.906;10.908;2022-08-19T09:11:30;23.20;99.90
1994;DHT22;998;49.906;10.908;2022-08-19T09:14:06;23.20;99.90
1994;DHT22;998;49.906;10.908;2022-08-19T09:16:36;23.20;99.90
1994;DHT22;998;49.906;10.908;2022-08-19T09:19:07;23.20;99.90
1994;DHT22;998;49.906;10.908;2022-08-19T09:21:34;23.20;99.90
1994;DHT22;998;49.906;10.908;2022-08-19T09:24:03;23.20;99.90
1994;DHT22;998;49.906;10.908;2022-08-19T09:26:31;23.20;99.90
1994;DHT22;998;49.906;10.908;2022-08-19T09:28:58;23.20;99.90
1994;DHT22;998;49.906;10.908;2022-08-19T09:31:29;23.10;99.90
1994;DHT22;998;49.906;10.908;2022-08-19T09:33:56;23.10;99.90
1994;DHT22;998;49.906;10.908;2022-08-19T09:36:27;23.00;99.90
1994;DHT22;998;49.906;10.908;2022-08-19T09:38:58;23.00;99.90
1994;DHT22;998;49.906;10.908;2022-08-19T09:41:26;23.00;99.90
1994;DHT22;998;49.906;10.908;2022-08-19T09:43:54;23.00;99.90
1994;DHT22;998;49.906;10.908;2022-08-19T09:46:23;23.00;99.90
1994;DHT22;998;49.906;10.908;2022-08-19T09:48:53;22.90;99.90
1994;DHT22;998;49.906;10.908;2022-08-19T09:51:23;22.90;99.90
1994;DHT22;998;49.906;10.908;2022-08-19T09:53:51;22.90;99.90
1994;DHT22;998;49.906;10.908;2022-08-19T09:56:20;22.90;99.90
1994;DHT22;998;49.906;10.908;2022-08-19T09:58:48;23.00;99.90
1994;DHT22;998;49.906;10.908;2022-08-19T10:01:19;22.90;99.90
1994;DHT22;998;49.906;10.908;2022-08-19T10:03:48;23.00;99.90
1994;DHT22;998;49.906;10.908;2022-08-19T10:06:18;23.00;99.90
1994;DHT22;998;49.906;10.908;2022-08-19T10:08:45;23.00;99.90
1994;DHT22;998;49.906;10.908;2022-08-19T10:11:12;23.00;99.90
1994;DHT22;998;49.906;10.908;2022-08-19T10:13:42;23.10;99.90
1994;DHT22;998;49.906;10.908;2022-08-19T10:16:12;23.10;99.90
1994;DHT22;998;49.906;10.908;2022-08-19T10:18:39;23.10;99.90
1994;DHT22;998;49.906;10.908;2022-08-19T10:21:09;23.10;99.90
1994;DHT22;998;49.906;10.908;2022-08-19T10:23:38;23.10;99.90
1994;DHT22;998;49.906;10.908;2022-08-19T10:26:06;23.10;99.90
1994;DHT22;998;49.906;10.908;2022-08-19T10:28:34;23.10;99.90
1994;DHT22;998;49.906;10.908;2022-08-19T10:31:04;23.00;99.90
1994;DHT22;998;49.906;10.908;2022-08-19T10:33:32;23.00;99.90
1994;DHT22;998;49.906;10.908;2022-08-19T10:36:00;23.00;99.90
1994;DHT22;998;49.906;10.908;2022-08-19T10:38:29;23.10;99.90
1994;DHT22;998;49.906;10.908;2022-08-19T10:41:05;22.90;99.90
1994;DHT22;998;49.906;10.908;2022-08-19T10:43:32;23.00;99.90
1994;DHT22;998;49.906;10.908;2022-08-19T10:46:00;23.10;99.90
1994;DHT22;998;49.906;10.908;2022-08-19T10:48:27;23.10;99.90
1994;DHT22;998;49.906;10.908;2022-08-19T10:50:54;23.10;99.90
1994;DHT22;998;49.906;10.908;2022-08-19T10:53:38;23.10;99.90
1994;DHT22;998;49.906;10.908;2022-08-19T10:56:07;23.10;99.90
1994;DHT22;998;49.906;10.908;2022-08-19T10:58:51;23.20;99.90
1994;DHT22;998;49.906;10.908;2022-08-19T11:01:18;23.30;99.90
1994;DHT22;998;49.906;10.908;2022-08-19T11:03:45;23.40;99.90
1994;DHT22;998;49.906;10.908;2022-08-19T11:06:12;23.40;99.90
1994;DHT22;998;49.906;10.908;2022-08-19T11:08:39;23.30;99.90
1994;DHT22;998;49.906;10.908;2022-08-19T11:11:08;23.30;99.90
1994;DHT22;998;49.906;10.908;2022-08-19T11:13:38;23.30;99.90
1994;DHT22;998;49.906;10.908;2022-08-19T11:16:07;23.30;99.90
1994;DHT22;998;49.906;10.908;2022-08-19T11:18:37;23.70;99.90
1994;DHT22;998;49.906;10.908;2022-08-19T11:21:09;23.30;99.90
1994;DHT22;998;49.906;10.908;2022-08-19T11:23:36;23.30;99.90
1994;DHT22;998;49.906;10.908;2022-08-19T11:26:03;23.40;99.90
1994;DHT22;998;49.906;10.908;2022-08-19T11:30:59;23.40;99.90
1994;DHT22;998;49.906;10.908;2022-08-19T11:33:28;23.40;99.90
1994;DHT22;998;49.906;10.908;2022-08-19T11:35:57;23.40;99.90
1994;DHT22;998;49.906;10.908;2022-08-19T11:38:24;23.40;99.90
1994;DHT22;998;49.906;10.908;2022-08-19T11:40:55;23.40;99.90
1994;DHT22;998;49.906;10.908;2022-08-19T11:43:22;23.40;99.90
1994;DHT22;998;49.906;10.908;2022-08-19T11:45:51;23.40;99.90
1994;DHT22;998;49.906;10.908;2022-08-19T11:48:17;23.40;99.90
1994;DHT22;998;49.906;10.908;2022-08-19T11:50:48;23.40;99.90
1994;DHT22;998;49.906;10.908;2022-08-19T11:53:15;23.50;99.90
1994;DHT22;998;49.906;10.908;2022-08-19T11:55:44;23.50;99.90
1994;DHT22;998;49.906;10.908;2022-08-19T11:58:11;23.40;99.90
1994;DHT22;998;49.906;10.908;2022-08-19T12:00:38;23.40;99.90
1994;DHT22;998;49.906;10.908;2022-08-19T12:03:06;23.40;99.90
1994;DHT22;998;49.906;10.908;2022-08-19T12:05:33;23.40;99.90
1994;DHT22;998;49.906;10.908;2022-08-19T12:08:02;23.40;99.90
1994;DHT22;998;49.906;10.908;2022-08-19T12:10:29;23.40;99.90
1994;DHT22;998;49.906;10.908;2022-08-19T12:12:56;23.40;99.90
1994;DHT22;998;49.906;10.908;2022-08-19T12:15:23;23.40;99.90
1994;DHT22;998;49.906;10.908;2022-08-19T12:17:50;23.30;99.90
1994;DHT22;998;49.906;10.908;2022-08-19T12:20:24;23.40;99.90
1994;DHT22;998;49.906;10.908;2022-08-19T12:22:51;23.40;99.90
1994;DHT22;998;49.906;10.908;2022-08-19T12:25:18;23.40;99.90
1994;DHT22;998;49.906;10.908;2022-08-19T12:27:46;23.40;99.90
1994;DHT22;998;49.906;10.908;2022-08-19T12:30:13;23.40;99.90
1994;DHT22;998;49.906;10.908;2022-08-19T12:32:40;23.30;99.90
1994;DHT22;998;49.906;10.908;2022-08-19T12:35:08;23.20;99.90
1994;DHT22;998;49.906;10.908;2022-08-19T12:37:38;23.20;99.90
1994;DHT22;998;49.906;10.908;2022-08-19T12:40:10;23.10;99.90
1994;DHT22;998;49.906;10.908;2022-08-19T12:42:38;23.10;99.90
1994;DHT22;998;49.906;10.908;2022-08-19T12:45:09;23.10;99.90
1994;DHT22;998;49.906;10.908;2022-08-19T12:47:36;22.90;99.90
1994;DHT22;998;49.906;10.908;2022-08-19T12:50:04;22.80;99.90
1994;DHT22;998;49.906;10.908;2022-08-19T12:52:35;22.70;99.90
1994;DHT22;998;49.906;10.908;2022-08-19T12:55:06;22.60;99.90
1994;DHT22;998;49.906;10.908;2022-08-19T12:57:34;22.60;99.90
1994;DHT22;998;49.906;10.908;2022-08-19T13:00:05;22.80;99.90
1994;DHT22;998;49.906;10.908;2022-08-19T13:02:34;22.90;99.90
1994;DHT22;998;49.906;10.908;2022-08-19T13:05:02;23.00;99.90
1994;DHT22;998;49.906;10.908;2022-08-19T13:07:31;23.00;99.90
1994;DHT22;998;49.906;10.908;2022-08-19T13:09:58;23.00;99.90
1994;DHT22;998;49.906;10.908;2022-08-19T13:12:26;22.80;99.90
1994;DHT22;998;49.906;10.908;2022-08-19T13:14:54;22.70;99.90
1994;DHT22;998;49.906;10.908;2022-08-19T13:17:21;22.90;99.90
1994;DHT22;998;49.906;10.908;2022-08-19T13:19:48;23.00;99.90
1994;DHT22;998;49.906;10.908;2022-08-19T13:22:15;23.00;99.90
1994;DHT22;998;49.906;10.908;2022-08-19T13:24:42;22.90;99.90
1994;DHT22;998;49.906;10.908;2022-08-19T13:27:09;22.90;99.90
1994;DHT22;998;49.906;10.908;2022-08-19T13:29:39;22.80;99.90
1994;DHT22;998;49.906;10.908;2022-08-19T13:32:23;22.80;99.90
1994;DHT22;998;49.906;10.908;2022-08-19T13:35:08;22.70;99.90
1994;DHT22;998;49.906;10.908;2022-08-19T13:37:35;22.60;99.90
1994;DHT22;998;49.906;10.908;2022-08-19T13:40:09;22.50;99.90
1994;DHT22;998;49.906;10.908;2022-08-19T13:42:38;22.60;99.90
1994;DHT22;998;49.906;10.908;2022-08-19T13:45:07;22.60;99.90
1994;DHT22;998;49.906;10.908;2022-08-19T13:47:34;22.60;99.90
1994;DHT22;998;49.906;10.908;2022-08-19T13:50:02;22.70;99.90
1994;DHT22;998;49.906;10.908;2022-08-19T13:52:29;22.80;99.90
1994;DHT22;998;49.906;10.908;2022-08-19T13:54:56;22.90;99.90
1994;DHT22;998;49.906;10.908;2022-08-19T13:57:23;22.70;99.90
1994;DHT22;998;49.906;10.908;2022-08-19T13:59:50;22.80;99.90
1994;DHT22;998;49.906;10.908;2022-08-19T14:02:18;22.80;99.90
1994;DHT22;998;49.906;10.908;2022-08-19T14:04:45;22.90;99.90
1994;DHT22;998;49.906;10.908;2022-08-19T14:07:12;23.00;99.90
1994;DHT22;998;49.906;10.908;2022-08-19T14:09:39;23.00;99.90
1994;DHT22;998;49.906;10.908;2022-08-19T14:12:07;22.90;99.90
1994;DHT22;998;49.906;10.908;2022-08-19T14:14:36;23.00;99.90
1994;DHT22;998;49.906;10.908;2022-08-19T14:17:05;23.00;99.90
1994;DHT22;998;49.906;10.908;2022-08-19T14:19:34;23.00;99.90
1994;DHT22;998;49.906;10.908;2022-08-19T14:22:02;23.00;99.90
1994;DHT22;998;49.906;10.908;2022-08-19T14:24:29;23.00;99.90
1994;DHT22;998;49.906;10.908;2022-08-19T14:26:57;23.00;99.90
1994;DHT22;998;49.906;10.908;2022-08-19T14:29:25;23.00;99.90
1994;DHT22;998;49.906;10.908;2022-08-19T14:31:53;23.00;99.90
1994;DHT22;998;49.906;10.908;2022-08-19T14:34:21;23.00;99.90
1994;DHT22;998;49.906;10.908;2022-08-19T14:36:50;22.90;99.90
1994;DHT22;998;49.906;10.908;2022-08-19T14:39:16;22.90;99.90
1994;DHT22;998;49.906;10.908;2022-08-19T14:41:44;23.00;99.90
1994;DHT22;998;49.906;10.908;2022-08-19T14:44:11;22.90;99.90
1994;DHT22;998;49.906;10.908;2022-08-19T14:46:39;22.80;99.90
1994;DHT22;998;49.906;10.908;2022-08-19T14:49:06;22.80;99.90
1994;DHT22;998;49.906;10.908;2022-08-19T14:51:33;22.90;99.90
1994;DHT22;998;49.906;10.908;2022-08-19T14:54:02;22.90;99.90
1994;DHT22;998;49.906;10.908;2022-08-19T14:56:29;22.90;99.90
1994;DHT22;998;49.906;10.908;2022-08-19T14:58:56;22.90;99.90
1994;DHT22;998;49.906;10.908;2022-08-19T15:01:26;23.00;99.90
1994;DHT22;998;49.906;10.908;2022-08-19T15:03:53;23.00;99.90
1994;DHT22;998;49.906;10.908;2022-08-19T15:06:21;23.00;99.90
1994;DHT22;998;49.906;10.908;2022-08-19T15:08:49;23.00;99.90
1994;DHT22;998;49.906;10.908;2022-08-19T15:11:21;22.90;99.90
1994;DHT22;998;49.906;10.908;2022-08-19T15:13:49;22.90;99.90
1994;DHT22;998;49.906;10.908;2022-08-19T15:16:17;22.90;99.90
1994;DHT22;998;49.906;10.908;2022-08-19T15:18:45;22.90;99.90
1994;DHT22;998;49.906;10.908;2022-08-19T15:21:13;22.90;99.90
1994;DHT22;998;49.906;10.908;2022-08-19T15:23:43;22.90;99.90
1994;DHT22;998;49.906;10.908;2022-08-19T15:26:10;22.80;99.90
1994;DHT22;998;49.906;10.908;2022-08-19T15:28:39;22.80;99.90
1994;DHT22;998;49.906;10.908;2022-08-19T15:31:06;22.80;99.90
1994;DHT22;998;49.906;10.908;2022-08-19T15:33:34;22.70;99.90
1994;DHT22;998;49.906;10.908;2022-08-19T15:36:03;22.80;99.90
1994;DHT22;998;49.906;10.908;2022-08-19T15:38:31;22.80;99.90
1994;DHT22;998;49.906;10.908;2022-08-19T15:40:59;22.80;99.90
1994;DHT22;998;49.906;10.908;2022-08-19T15:43:48;22.70;99.90
1994;DHT22;998;49.906;10.908;2022-08-19T15:46:17;22.70;99.90
1994;DHT22;998;49.906;10.908;2022-08-19T15:48:44;22.70;99.90
1994;DHT22;998;49.906;10.908;2022-08-19T15:51:11;22.60;99.90
1994;DHT22;998;49.906;10.908;2022-08-19T15:53:38;22.60;99.90
1994;DHT22;998;49.906;10.908;2022-08-19T15:56:06;22.60;99.90
1994;DHT22;998;49.906;10.908;2022-08-19T15:58:33;22.60;99.90
1994;DHT22;998;49.906;10.908;2022-08-19T16:01:18;22.60;99.90
1994;DHT22;998;49.906;10.908;2022-08-19T16:04:08;22.60;99.90
1994;DHT22;998;49.906;10.908;2022-08-19T16:06:59;22.50;99.90
1994;DHT22;998;49.906;10.908;2022-08-19T16:09:29;22.60;99.90
1994;DHT22;998;49.906;10.908;2022-08-19T16:12:00;22.50;99.90
1994;DHT22;998;49.906;10.908;2022-08-19T16:14:28;22.50;99.90
1994;DHT22;998;49.906;10.908;2022-08-19T16:16:56;22.50;99.90